Linwood, Texas
Current Conditions -  °F | °C
As of 11:35 PM on Wednesday 22 Oct 2014 (Local Time) from KJSO Reporting Station
Clear Clear  
Wind Chill: 17°   Ceiling: Unl
Heat Index: 17°   Visibility: 10mi
Dew Point: 12°   Wind: 3mph
Humidity: 70%   Direction: 80°E
Pressure: 30.15"   Gusts: NA
Location:  31.6384°N, 95.0772°W
Report Text: KJSO 230435Z AUTO 08003KT 10SM CLR 17/11 A3015 RMK AO2 T01700116
Loading
Personal Weather Stations






























Interactive Weather Map
Tropical Storm Tracking
New forecast layout! Learn more

10-Day Weather Forecast

Advertisements
Track Severe Weather on mobile